sensor_id;sensor_type;location;lat;lon;timestamp;pressure;altitude;pressure_sealevel;temperature;humidity
10700;BME280;5401;41.986;21.452;2024-03-22T00:00:45;98441.75;;;10.72;44.07
10700;BME280;5401;41.986;21.452;2024-03-22T00:03:13;98449.13;;;10.77;44.44
10700;BME280;5401;41.986;21.452;2024-03-22T00:05:41;98489.19;;;11.02;44.34
10700;BME280;5401;41.986;21.452;2024-03-22T00:08:08;98475.22;;;10.94;44.31
10700;BME280;5401;41.986;21.452;2024-03-22T00:10:36;98473.75;;;10.98;44.45
10700;BME280;5401;41.986;21.452;2024-03-22T00:13:03;98452.59;;;10.84;44.62
10700;BME280;5401;41.986;21.452;2024-03-22T00:15:32;98465.53;;;11.00;44.10
10700;BME280;5401;41.986;21.452;2024-03-22T00:17:59;98484.81;;;11.14;44.01
10700;BME280;5401;41.986;21.452;2024-03-22T00:20:27;98451.34;;;10.93;44.22
10700;BME280;5401;41.986;21.452;2024-03-22T00:22:54;98461.19;;;10.99;44.25
10700;BME280;5401;41.986;21.452;2024-03-22T00:25:22;98482.53;;;11.18;44.18
10700;BME280;5401;41.986;21.452;2024-03-22T00:27:49;98414.09;;;10.78;43.53
10700;BME280;5401;41.986;21.452;2024-03-22T00:30:19;98481.97;;;11.09;44.50
10700;BME280;5401;41.986;21.452;2024-03-22T00:32:49;98451.34;;;10.93;44.54
10700;BME280;5401;41.986;21.452;2024-03-22T00:35:17;98474.56;;;11.05;44.40
10700;BME280;5401;41.986;21.452;2024-03-22T00:37:44;98449.69;;;10.92;44.90
10700;BME280;5401;41.986;21.452;2024-03-22T00:40:12;98475.19;;;11.07;44.56
10700;BME280;5401;41.986;21.452;2024-03-22T00:42:38;98463.66;;;11.00;44.49
10700;BME280;5401;41.986;21.452;2024-03-22T00:45:06;98477.47;;;11.03;44.60
10700;BME280;5401;41.986;21.452;2024-03-22T00:47:33;98477.69;;;10.96;45.07
10700;BME280;5401;41.986;21.452;2024-03-22T00:50:02;98464.94;;;10.91;44.84
10700;BME280;5401;41.986;21.452;2024-03-22T00:52:29;98461.25;;;10.79;45.41
10700;BME280;5401;41.986;21.452;2024-03-22T00:54:57;98439.47;;;10.69;44.97
10700;BME280;5401;41.986;21.452;2024-03-22T00:57:23;98474.19;;;10.95;44.83
10700;BME280;5401;41.986;21.452;2024-03-22T00:59:51;98461.66;;;10.89;44.99
10700;BME280;5401;41.986;21.452;2024-03-22T01:02:17;98466.78;;;10.97;45.09
10700;BME280;5401;41.986;21.452;2024-03-22T01:04:45;98473.97;;;11.03;44.66
10700;BME280;5401;41.986;21.452;2024-03-22T01:07:13;98457.06;;;10.96;45.30
10700;BME280;5401;41.986;21.452;2024-03-22T01:09:41;98473.97;;;11.03;45.03
10700;BME280;5401;41.986;21.452;2024-03-22T01:12:10;98467.78;;;10.96;45.39
10700;BME280;5401;41.986;21.452;2024-03-22T01:14:36;98483.47;;;10.93;45.09
10700;BME280;5401;41.986;21.452;2024-03-22T01:17:04;98473.00;;;10.85;45.47
10700;BME280;5401;41.986;21.452;2024-03-22T01:19:30;98462.34;;;10.66;45.74
10700;BME280;5401;41.986;21.452;2024-03-22T01:21:58;98463.81;;;10.55;46.06
10700;BME280;5401;41.986;21.452;2024-03-22T01:24:26;98467.72;;;10.53;46.01
10700;BME280;5401;41.986;21.452;2024-03-22T01:26:54;98483.16;;;10.57;46.29
10700;BME280;5401;41.986;21.452;2024-03-22T01:29:21;98475.34;;;10.49;46.02
10700;BME280;5401;41.986;21.452;2024-03-22T01:31:49;98484.78;;;10.58;45.81
10700;BME280;5401;41.986;21.452;2024-03-22T01:34:34;98362.06;;;9.93;46.33
10700;BME280;5401;41.986;21.452;2024-03-22T01:37:02;98458.03;;;10.52;46.37
10700;BME280;5401;41.986;21.452;2024-03-22T01:39:29;98447.31;;;10.58;46.16
10700;BME280;5401;41.986;21.452;2024-03-22T01:41:57;98480.03;;;10.73;46.49
10700;BME280;5401;41.986;21.452;2024-03-22T01:44:27;98473.03;;;10.72;46.36
10700;BME280;5401;41.986;21.452;2024-03-22T01:46:55;98446.50;;;10.58;46.24
10700;BME280;5401;41.986;21.452;2024-03-22T01:49:23;98470.97;;;10.74;46.43
10700;BME280;5401;41.986;21.452;2024-03-22T01:51:54;98451.25;;;10.56;46.40
10700;BME280;5401;41.986;21.452;2024-03-22T01:54:20;98414.66;;;10.31;46.63
10700;BME280;5401;41.986;21.452;2024-03-22T01:56:48;98478.84;;;10.63;46.65
10700;BME280;5401;41.986;21.452;2024-03-22T01:59:15;98474.94;;;10.59;46.94
10700;BME280;5401;41.986;21.452;2024-03-22T02:01:43;98473.88;;;10.60;46.72
10700;BME280;5401;41.986;21.452;2024-03-22T02:04:10;98453.50;;;10.52;46.63
10700;BME280;5401;41.986;21.452;2024-03-22T02:06:39;98449.63;;;10.42;46.42
10700;BME280;5401;41.986;21.452;2024-03-22T02:09:07;98449.00;;;10.40;46.78
10700;BME280;5401;41.986;21.452;2024-03-22T02:11:36;98436.06;;;10.31;46.95
10700;BME280;5401;41.986;21.452;2024-03-22T02:14:03;98451.06;;;10.38;46.88
10700;BME280;5401;41.986;21.452;2024-03-22T02:16:31;98472.88;;;10.48;46.80
10700;BME280;5401;41.986;21.452;2024-03-22T02:18:58;98465.06;;;10.46;46.90
10700;BME280;5401;41.986;21.452;2024-03-22T02:21:25;98445.31;;;10.41;47.07
10700;BME280;5401;41.986;21.452;2024-03-22T02:23:53;98468.13;;;10.63;46.91
10700;BME280;5401;41.986;21.452;2024-03-22T02:26:21;98478.19;;;10.73;47.06
10700;BME280;5401;41.986;21.452;2024-03-22T02:28:48;98452.44;;;10.72;46.60
10700;BME280;5401;41.986;21.452;2024-03-22T02:31:15;98469.25;;;10.92;45.97
10700;BME280;5401;41.986;21.452;2024-03-22T02:33:42;98473.34;;;11.01;46.18
10700;BME280;5401;41.986;21.452;2024-03-22T02:36:10;98476.81;;;11.08;45.87
10700;BME280;5401;41.986;21.452;2024-03-22T02:38:36;98460.75;;;11.08;45.63
10700;BME280;5401;41.986;21.452;2024-03-22T02:41:05;98455.34;;;11.14;45.62
10700;BME280;5401;41.986;21.452;2024-03-22T02:43:32;98482.25;;;11.32;45.15
10700;BME280;5401;41.986;21.452;2024-03-22T02:46:00;98430.44;;;11.07;44.97
10700;BME280;5401;41.986;21.452;2024-03-22T02:48:27;98467.59;;;11.35;45.28
10700;BME280;5401;41.986;21.452;2024-03-22T02:50:55;98484.44;;;11.54;44.69
10700;BME280;5401;41.986;21.452;2024-03-22T02:53:22;98482.31;;;11.63;44.87
10700;BME280;5401;41.986;21.452;2024-03-22T02:55:50;98484.13;;;11.69;45.25
10700;BME280;5401;41.986;21.452;2024-03-22T02:58:20;98483.13;;;11.70;44.11
10700;BME280;5401;41.986;21.452;2024-03-22T03:00:48;98492.53;;;11.78;44.14
10700;BME280;5401;41.986;21.452;2024-03-22T03:03:14;98497.25;;;11.83;44.00
10700;BME280;5401;41.986;21.452;2024-03-22T03:05:42;98493.31;;;11.85;43.92
10700;BME280;5401;41.986;21.452;2024-03-22T03:08:08;98480.75;;;11.79;44.00
10700;BME280;5401;41.986;21.452;2024-03-22T03:10:36;98497.81;;;11.91;43.59
10700;BME280;5401;41.986;21.452;2024-03-22T03:13:03;98483.38;;;11.92;44.15
10700;BME280;5401;41.986;21.452;2024-03-22T03:15:32;98490.34;;;11.93;43.65
10700;BME280;5401;41.986;21.452;2024-03-22T03:17:58;98474.53;;;11.85;43.22
10700;BME280;5401;41.986;21.452;2024-03-22T03:20:26;98472.03;;;11.90;43.41
10700;BME280;5401;41.986;21.452;2024-03-22T03:22:52;98492.56;;;12.03;43.40
10700;BME280;5401;41.986;21.452;2024-03-22T03:25:21;98478.75;;;11.99;43.20
10700;BME280;5401;41.986;21.452;2024-03-22T03:27:48;98488.41;;;12.07;43.47
10700;BME280;5401;41.986;21.452;2024-03-22T03:30:15;98480.97;;;12.09;43.70
10700;BME280;5401;41.986;21.452;2024-03-22T03:32:43;98489.63;;;12.11;43.03
10700;BME280;5401;41.986;21.452;2024-03-22T03:35:11;98459.81;;;11.94;43.42
10700;BME280;5401;41.986;21.452;2024-03-22T03:37:37;98482.38;;;12.11;42.65
10700;BME280;5401;41.986;21.452;2024-03-22T03:40:06;98487.94;;;12.16;43.82
10700;BME280;5401;41.986;21.452;2024-03-22T03:42:33;98461.63;;;12.00;43.46
10700;BME280;5401;41.986;21.452;2024-03-22T03:45:01;98490.97;;;12.19;42.91
10700;BME280;5401;41.986;21.452;2024-03-22T03:47:27;98456.47;;;11.99;42.63
10700;BME280;5401;41.986;21.452;2024-03-22T03:49:56;98485.41;;;12.21;42.58
10700;BME280;5401;41.986;21.452;2024-03-22T03:52:23;98485.59;;;12.19;43.14
10700;BME280;5401;41.986;21.452;2024-03-22T03:54:50;98479.16;;;12.03;43.39
10700;BME280;5401;41.986;21.452;2024-03-22T03:57:17;98489.97;;;11.59;43.92
10700;BME280;5401;41.986;21.452;2024-03-22T03:59:44;98480.59;;;11.38;44.22
10700;BME280;5401;41.986;21.452;2024-03-22T04:02:11;98494.44;;;11.28;44.36
10700;BME280;5401;41.986;21.452;2024-03-22T04:04:39;98497.69;;;10.93;44.87
10700;BME280;5401;41.986;21.452;2024-03-22T04:07:07;98502.72;;;10.70;45.37
10700;BME280;5401;41.986;21.452;2024-03-22T04:09:34;98507.66;;;10.54;45.65
10700;BME280;5401;41.986;21.452;2024-03-22T04:12:01;98505.63;;;10.37;46.31
10700;BME280;5401;41.986;21.452;2024-03-22T04:14:28;98522.09;;;10.21;46.08
10700;BME280;5401;41.986;21.452;2024-03-22T04:16:55;98525.59;;;10.09;46.29
10700;BME280;5401;41.986;21.452;2024-03-22T04:19:22;98523.75;;;10.03;46.56
10700;BME280;5401;41.986;21.452;2024-03-22T04:21:50;98512.41;;;9.82;47.24
10700;BME280;5401;41.986;21.452;2024-03-22T04:24:18;98528.66;;;9.93;47.54
10700;BME280;5401;41.986;21.452;2024-03-22T04:26:45;98537.06;;;9.84;46.88
10700;BME280;5401;41.986;21.452;2024-03-22T04:29:12;98493.41;;;9.51;47.43
10700;BME280;5401;41.986;21.452;2024-03-22T04:31:39;98548.44;;;9.92;46.76
10700;BME280;5401;41.986;21.452;2024-03-22T04:34:06;98553.78;;;9.98;47.00
10700;BME280;5401;41.986;21.452;2024-03-22T04:36:33;98554.22;;;10.02;47.36
10700;BME280;5401;41.986;21.452;2024-03-22T04:39:01;98550.91;;;10.13;47.19
10700;BME280;5401;41.986;21.452;2024-03-22T04:41:31;98533.00;;;10.07;46.96
10700;BME280;5401;41.986;21.452;2024-03-22T04:43:58;98550.72;;;10.27;46.97
10700;BME280;5401;41.986;21.452;2024-03-22T04:46:26;98556.47;;;10.50;47.03
10700;BME280;5401;41.986;21.452;2024-03-22T04:48:53;98549.22;;;10.76;46.42
10700;BME280;5401;41.986;21.452;2024-03-22T04:51:20;98556.63;;;10.93;46.56
10700;BME280;5401;41.986;21.452;2024-03-22T04:53:47;98549.31;;;11.26;46.11
10700;BME280;5401;41.986;21.452;2024-03-22T04:56:14;98552.38;;;11.79;45.13
10700;BME280;5401;41.986;21.452;2024-03-22T04:58:43;98552.31;;;11.85;44.79
10700;BME280;5401;41.986;21.452;2024-03-22T05:01:09;98550.41;;;11.62;44.97
10700;BME280;5401;41.986;21.452;2024-03-22T05:03:38;98561.16;;;11.92;44.76
10700;BME280;5401;41.986;21.452;2024-03-22T05:06:07;98560.50;;;12.51;44.66
10700;BME280;5401;41.986;21.452;2024-03-22T05:08:34;98563.06;;;12.64;44.33
10700;BME280;5401;41.986;21.452;2024-03-22T05:11:01;98568.03;;;12.67;44.43
10700;BME280;5401;41.986;21.452;2024-03-22T05:13:29;98573.06;;;12.57;43.86
10700;BME280;5401;41.986;21.452;2024-03-22T05:15:57;98563.13;;;12.34;44.98
10700;BME280;5401;41.986;21.452;2024-03-22T05:18:24;98576.56;;;12.03;45.37
10700;BME280;5401;41.986;21.452;2024-03-22T05:20:51;98578.72;;;11.88;45.56
10700;BME280;5401;41.986;21.452;2024-03-22T05:23:18;98580.16;;;11.91;45.12
10700;BME280;5401;41.986;21.452;2024-03-22T05:25:44;98594.53;;;12.03;45.62
10700;BME280;5401;41.986;21.452;2024-03-22T05:28:12;98589.38;;;12.01;45.24
10700;BME280;5401;41.986;21.452;2024-03-22T05:30:39;98584.34;;;11.80;45.08
10700;BME280;5401;41.986;21.452;2024-03-22T05:33:07;98604.75;;;11.81;45.63
10700;BME280;5401;41.986;21.452;2024-03-22T05:35:34;98611.34;;;11.92;45.78
10700;BME280;5401;41.986;21.452;2024-03-22T05:38:01;98604.63;;;12.07;45.24
10700;BME280;5401;41.986;21.452;2024-03-22T05:40:29;98596.44;;;12.26;45.80
10700;BME280;5401;41.986;21.452;2024-03-22T05:42:56;98591.97;;;12.45;45.22
10700;BME280;5401;41.986;21.452;2024-03-22T05:45:23;98599.97;;;12.75;44.71
10700;BME280;5401;41.986;21.452;2024-03-22T05:47:50;98594.47;;;13.12;44.89
10700;BME280;5401;41.986;21.452;2024-03-22T05:50:19;98606.53;;;13.45;44.48
10700;BME280;5401;41.986;21.452;2024-03-22T05:52:46;98600.47;;;13.67;44.16
10700;BME280;5401;41.986;21.452;2024-03-22T05:55:13;98600.22;;;13.87;43.34
10700;BME280;5401;41.986;21.452;2024-03-22T05:57:40;98613.66;;;14.04;43.71
10700;BME280;5401;41.986;21.452;2024-03-22T06:00:07;98609.28;;;14.21;42.46
10700;BME280;5401;41.986;21.452;2024-03-22T06:02:35;98607.34;;;14.39;42.91
10700;BME280;5401;41.986;21.452;2024-03-22T06:05:02;98518.78;;;13.91;42.29
10700;BME280;5401;41.986;21.452;2024-03-22T06:07:31;98598.00;;;14.53;42.72
10700;BME280;5401;41.986;21.452;2024-03-22T06:10:07;98609.06;;;14.63;42.70
10700;BME280;5401;41.986;21.452;2024-03-22T06:12:34;98614.91;;;14.71;42.19
10700;BME280;5401;41.986;21.452;2024-03-22T06:15:01;98614.59;;;14.79;42.04
10700;BME280;5401;41.986;21.452;2024-03-22T06:17:32;98571.69;;;14.66;42.09
10700;BME280;5401;41.986;21.452;2024-03-22T06:20:00;98612.13;;;15.00;41.90
10700;BME280;5401;41.986;21.452;2024-03-22T06:22:27;98613.22;;;15.11;41.45
10700;BME280;5401;41.986;21.452;2024-03-22T06:24:55;98609.56;;;15.17;41.18
10700;BME280;5401;41.986;21.452;2024-03-22T06:27:22;98607.47;;;15.19;41.62
10700;BME280;5401;41.986;21.452;2024-03-22T06:29:49;98616.25;;;15.37;41.24
10700;BME280;5401;41.986;21.452;2024-03-22T06:32:16;98622.53;;;15.65;40.69
10700;BME280;5401;41.986;21.452;2024-03-22T06:34:44;98626.59;;;15.51;40.86
10700;BME280;5401;41.986;21.452;2024-03-22T06:37:11;98617.06;;;15.49;40.86
10700;BME280;5401;41.986;21.452;2024-03-22T06:39:38;98596.69;;;15.41;40.90
10700;BME280;5401;41.986;21.452;2024-03-22T06:42:06;98635.59;;;15.68;40.31
10700;BME280;5401;41.986;21.452;2024-03-22T06:44:34;98630.69;;;15.54;40.52
10700;BME280;5401;41.986;21.452;2024-03-22T06:47:00;98607.09;;;15.27;40.73
10700;BME280;5401;41.986;21.452;2024-03-22T06:49:29;98623.31;;;15.15;40.57
10700;BME280;5401;41.986;21.452;2024-03-22T06:51:55;98631.25;;;15.10;40.86
10700;BME280;5401;41.986;21.452;2024-03-22T06:54:23;98629.25;;;14.83;40.94
10700;BME280;5401;41.986;21.452;2024-03-22T06:56:50;98607.28;;;14.57;41.37
10700;BME280;5401;41.986;21.452;2024-03-22T06:59:18;98631.91;;;14.61;41.49
10700;BME280;5401;41.986;21.452;2024-03-22T07:01:45;98624.84;;;14.48;41.37
10700;BME280;5401;41.986;21.452;2024-03-22T07:04:13;98651.44;;;14.56;41.92
10700;BME280;5401;41.986;21.452;2024-03-22T07:06:39;98633.03;;;14.53;41.53
10700;BME280;5401;41.986;21.452;2024-03-22T07:09:08;98640.66;;;14.56;41.67
10700;BME280;5401;41.986;21.452;2024-03-22T07:11:35;98622.16;;;14.48;41.64
10700;BME280;5401;41.986;21.452;2024-03-22T07:14:05;98586.97;;;14.43;41.39
10700;BME280;5401;41.986;21.452;2024-03-22T07:16:36;98645.88;;;14.92;41.46
10700;BME280;5401;41.986;21.452;2024-03-22T07:19:04;98649.97;;;14.94;41.30
10700;BME280;5401;41.986;21.452;2024-03-22T07:21:32;98623.13;;;14.76;41.09
10700;BME280;5401;41.986;21.452;2024-03-22T07:24:00;98648.94;;;15.06;40.96
10700;BME280;5401;41.986;21.452;2024-03-22T07:26:27;98637.16;;;15.41;41.00
10700;BME280;5401;41.986;21.452;2024-03-22T07:28:54;98562.25;;;15.60;40.58
10700;BME280;5401;41.986;21.452;2024-03-22T07:31:21;98616.59;;;16.74;40.73
10700;BME280;5401;41.986;21.452;2024-03-22T07:33:53;98651.81;;;17.76;39.59
10700;BME280;5401;41.986;21.452;2024-03-22T07:36:20;98610.56;;;18.12;39.35
10700;BME280;5401;41.986;21.452;2024-03-22T07:38:47;98658.22;;;18.81;38.05
10700;BME280;5401;41.986;21.452;2024-03-22T07:41:15;98646.09;;;18.89;37.77
10700;BME280;5401;41.986;21.452;2024-03-22T07:43:42;98650.44;;;19.16;37.94
10700;BME280;5401;41.986;21.452;2024-03-22T07:46:16;98595.81;;;19.07;37.19
10700;BME280;5401;41.986;21.452;2024-03-22T07:48:44;98643.06;;;19.88;36.61
10700;BME280;5401;41.986;21.452;2024-03-22T07:51:13;98623.66;;;20.26;36.09
10700;BME280;5401;41.986;21.452;2024-03-22T07:53:40;98636.09;;;20.02;35.87
10700;BME280;5401;41.986;21.452;2024-03-22T07:56:07;98664.16;;;20.22;35.92
10700;BME280;5401;41.986;21.452;2024-03-22T07:58:36;98629.25;;;19.95;35.46
10700;BME280;5401;41.986;21.452;2024-03-22T08:01:05;98632.03;;;19.64;35.40
10700;BME280;5401;41.986;21.452;2024-03-22T08:03:36;98597.88;;;18.95;35.66
10700;BME280;5401;41.986;21.452;2024-03-22T08:06:05;98596.31;;;18.47;35.82
10700;BME280;5401;41.986;21.452;2024-03-22T08:08:35;98665.22;;;18.72;36.37
10700;BME280;5401;41.986;21.452;2024-03-22T08:11:02;98644.78;;;18.39;36.35
10700;BME280;5401;41.986;21.452;2024-03-22T08:13:29;98638.06;;;18.20;36.04
10700;BME280;5401;41.986;21.452;2024-03-22T08:15:56;98650.09;;;18.08;36.37
10700;BME280;5401;41.986;21.452;2024-03-22T08:18:24;98601.78;;;17.62;37.07
10700;BME280;5401;41.986;21.452;2024-03-22T08:20:51;98589.03;;;17.42;37.24
10700;BME280;5401;41.986;21.452;2024-03-22T08:23:19;98658.84;;;17.77;37.25
10700;BME280;5401;41.986;21.452;2024-03-22T08:25:50;98665.06;;;17.56;36.87
10700;BME280;5401;41.986;21.452;2024-03-22T08:28:18;98657.28;;;17.44;37.09
10700;BME280;5401;41.986;21.452;2024-03-22T08:30:45;98646.22;;;17.29;37.31
10700;BME280;5401;41.986;21.452;2024-03-22T08:33:14;98616.13;;;16.93;37.10
10700;BME280;5401;41.986;21.452;2024-03-22T08:35:41;98636.69;;;16.94;37.43
10700;BME280;5401;41.986;21.452;2024-03-22T08:38:10;98658.56;;;16.92;37.23
10700;BME280;5401;41.986;21.452;2024-03-22T08:40:39;98660.56;;;16.80;37.76
10700;BME280;5401;41.986;21.452;2024-03-22T08:43:13;98632.75;;;16.69;38.03
10700;BME280;5401;41.986;21.452;2024-03-22T08:45:41;98656.44;;;16.94;37.80
10700;BME280;5401;41.986;21.452;2024-03-22T08:48:09;98659.91;;;17.06;37.55
10700;BME280;5401;41.986;21.452;2024-03-22T08:50:37;98654.72;;;17.05;38.17
10700;BME280;5401;41.986;21.452;2024-03-22T08:53:07;98650.97;;;17.06;36.96
10700;BME280;5401;41.986;21.452;2024-03-22T08:55:34;98602.44;;;16.83;37.96
10700;BME280;5401;41.986;21.452;2024-03-22T08:58:03;98638.94;;;17.13;37.91
10700;BME280;5401;41.986;21.452;2024-03-22T09:00:36;98622.03;;;17.06;37.29
10700;BME280;5401;41.986;21.452;2024-03-22T09:03:05;98643.44;;;17.24;37.69
10700;BME280;5401;41.986;21.452;2024-03-22T09:05:32;98583.19;;;16.96;36.94
10700;BME280;5401;41.986;21.452;2024-03-22T09:08:02;98612.19;;;17.33;37.00
10700;BME280;5401;41.986;21.452;2024-03-22T09:10:32;98639.13;;;17.60;36.29
10700;BME280;5401;41.986;21.452;2024-03-22T09:13:02;98643.72;;;17.81;36.37
10700;BME280;5401;41.986;21.452;2024-03-22T09:15:29;98631.91;;;17.87;36.83
10700;BME280;5401;41.986;21.452;2024-03-22T09:18:00;98570.75;;;17.70;36.45
10700;BME280;5401;41.986;21.452;2024-03-22T09:20:27;98628.91;;;17.84;36.60
10700;BME280;5401;41.986;21.452;2024-03-22T09:22:57;98575.59;;;17.68;36.82
10700;BME280;5401;41.986;21.452;2024-03-22T09:25:27;98605.94;;;17.91;36.69
10700;BME280;5401;41.986;21.452;2024-03-22T09:27:57;98591.84;;;17.89;36.39
10700;BME280;5401;41.986;21.452;2024-03-22T09:30:24;98636.91;;;18.16;35.91
10700;BME280;5401;41.986;21.452;2024-03-22T09:32:52;98609.47;;;18.08;36.12
10700;BME280;5401;41.986;21.452;2024-03-22T09:35:21;98545.28;;;17.92;36.14
10700;BME280;5401;41.986;21.452;2024-03-22T09:37:48;98590.53;;;18.39;35.71
10700;BME280;5401;41.986;21.452;2024-03-22T09:40:15;98550.94;;;18.38;35.46
10700;BME280;5401;41.986;21.452;2024-03-22T09:42:48;98590.09;;;18.78;35.38
10700;BME280;5401;41.986;21.452;2024-03-22T09:45:18;98600.22;;;18.87;35.28
10700;BME280;5401;41.986;21.452;2024-03-22T09:47:50;98598.06;;;18.89;35.29
10700;BME280;5401;41.986;21.452;2024-03-22T09:50:21;98594.34;;;18.95;34.94
10700;BME280;5401;41.986;21.452;2024-03-22T09:52:52;98586.00;;;19.01;35.04
10700;BME280;5401;41.986;21.452;2024-03-22T09:55:20;98584.16;;;19.12;34.90
10700;BME280;5401;41.986;21.452;2024-03-22T09:57:50;98577.19;;;18.94;34.83
10700;BME280;5401;41.986;21.452;2024-03-22T10:03:45;98557.66;;;18.57;35.15
10700;BME280;5401;41.986;21.452;2024-03-22T10:06:16;98523.78;;;18.33;35.07
10700;BME280;5401;41.986;21.452;2024-03-22T10:08:45;98583.88;;;18.82;35.11
10700;BME280;5401;41.986;21.452;2024-03-22T10:11:12;98570.81;;;19.05;34.88
10700;BME280;5401;41.986;21.452;2024-03-22T10:13:40;98573.63;;;19.20;34.99
10700;BME280;5401;41.986;21.452;2024-03-22T10:16:07;98548.94;;;19.22;34.34
10700;BME280;5401;41.986;21.452;2024-03-22T10:18:36;98527.28;;;19.31;34.35
10700;BME280;5401;41.986;21.452;2024-03-22T10:21:04;98497.19;;;19.43;34.17
10700;BME280;5401;41.986;21.452;2024-03-22T10:23:35;98552.31;;;19.94;33.85
10700;BME280;5401;41.986;21.452;2024-03-22T10:26:03;98492.47;;;19.79;33.61
10700;BME280;5401;41.986;21.452;2024-03-22T10:28:31;98520.78;;;19.93;33.47
10700;BME280;5401;41.986;21.452;2024-03-22T10:30:58;98540.69;;;20.13;33.49
10700;BME280;5401;41.986;21.452;2024-03-22T10:33:26;98544.25;;;20.24;33.46
10700;BME280;5401;41.986;21.452;2024-03-22T10:35:55;98501.81;;;20.13;33.14
10700;BME280;5401;41.986;21.452;2024-03-22T10:38:24;98497.50;;;20.37;32.95
10700;BME280;5401;41.986;21.452;2024-03-22T10:40:54;98540.00;;;20.77;33.21
10700;BME280;5401;41.986;21.452;2024-03-22T10:43:23;98544.06;;;20.94;33.32
10700;BME280;5401;41.986;21.452;2024-03-22T10:45:50;98511.94;;;21.01;33.04
10700;BME280;5401;41.986;21.452;2024-03-22T10:48:21;98542.91;;;21.49;32.43
10700;BME280;5401;41.986;21.452;2024-03-22T10:50:53;98528.41;;;21.64;33.02
10700;BME280;5401;41.986;21.452;2024-03-22T10:53:23;98497.59;;;21.68;32.59
10700;BME280;5401;41.986;21.452;2024-03-22T10:55:52;98539.59;;;22.25;32.57
10700;BME280;5401;41.986;21.452;2024-03-22T10:58:22;98522.38;;;22.34;32.51
10700;BME280;5401;41.986;21.452;2024-03-22T11:00:51;98497.09;;;22.19;32.13
10700;BME280;5401;41.986;21.452;2024-03-22T11:03:19;98517.78;;;22.25;32.53
10700;BME280;5401;41.986;21.452;2024-03-22T11:05:46;98504.41;;;22.28;31.92
10700;BME280;5401;41.986;21.452;2024-03-22T11:08:23;98481.50;;;22.24;32.02
10700;BME280;5401;41.986;21.452;2024-03-22T11:10:50;98502.66;;;22.42;32.15
10700;BME280;5401;41.986;21.452;2024-03-22T11:13:20;98488.31;;;22.27;32.01
10700;BME280;5401;41.986;21.452;2024-03-22T11:15:48;98511.00;;;22.13;31.82
10700;BME280;5401;41.986;21.452;2024-03-22T11:18:18;98496.44;;;21.79;31.85
10700;BME280;5401;41.986;21.452;2024-03-22T11:20:45;98513.06;;;21.83;31.87
10700;BME280;5401;41.986;21.452;2024-03-22T11:23:13;98474.50;;;21.51;31.96
10700;BME280;5401;41.986;21.452;2024-03-22T11:25:41;98493.31;;;21.52;32.10
10700;BME280;5401;41.986;21.452;2024-03-22T11:28:09;98494.94;;;21.53;32.56
10700;BME280;5401;41.986;21.452;2024-03-22T11:30:37;98487.84;;;21.52;32.51
10700;BME280;5401;41.986;21.452;2024-03-22T11:33:05;98452.47;;;21.33;31.90
10700;BME280;5401;41.986;21.452;2024-03-22T11:35:33;98470.91;;;21.65;31.90
10700;BME280;5401;41.986;21.452;2024-03-22T11:38:02;98423.53;;;21.56;32.04
10700;BME280;5401;41.986;21.452;2024-03-22T11:40:32;98472.88;;;22.03;31.70
10700;BME280;5401;41.986;21.452;2024-03-22T11:43:03;98447.59;;;21.92;31.75
10700;BME280;5401;41.986;21.452;2024-03-22T11:45:31;98444.00;;;22.02;31.21
10700;BME280;5401;41.986;21.452;2024-03-22T11:48:04;98435.94;;;22.25;30.93
10700;BME280;5401;41.986;21.452;2024-03-22T11:50:32;98456.56;;;22.36;31.19
10700;BME280;5401;41.986;21.452;2024-03-22T11:53:01;98405.03;;;21.96;30.87
10700;BME280;5401;41.986;21.452;2024-03-22T11:55:30;98407.78;;;21.91;31.51
10700;BME280;5401;41.986;21.452;2024-03-22T11:58:00;98444.75;;;22.12;30.99
10700;BME280;5401;41.986;21.452;2024-03-22T12:00:28;98426.78;;;22.06;30.66
10700;BME280;5401;41.986;21.452;2024-03-22T12:02:57;98430.53;;;22.20;31.04
10700;BME280;5401;41.986;21.452;2024-03-22T12:05:26;98392.09;;;22.17;30.62
10700;BME280;5401;41.986;21.452;2024-03-22T12:07:56;98432.13;;;22.54;30.80
10700;BME280;5401;41.986;21.452;2024-03-22T12:10:25;98438.66;;;22.58;30.28
10700;BME280;5401;41.986;21.452;2024-03-22T12:12:53;98378.44;;;22.17;30.52
10700;BME280;5401;41.986;21.452;2024-03-22T12:15:21;98377.59;;;22.21;30.17
10700;BME280;5401;41.986;21.452;2024-03-22T12:17:49;98377.13;;;22.14;30.18
10700;BME280;5401;41.986;21.452;2024-03-22T12:20:16;98443.72;;;22.41;30.35
10700;BME280;5401;41.986;21.452;2024-03-22T12:22:45;98429.63;;;22.29;30.89
10700;BME280;5401;41.986;21.452;2024-03-22T12:25:12;98430.13;;;22.36;30.55
10700;BME280;5401;41.986;21.452;2024-03-22T12:27:40;98372.25;;;22.01;30.23
10700;BME280;5401;41.986;21.452;2024-03-22T12:30:07;98399.72;;;22.10;30.49
10700;BME280;5401;41.986;21.452;2024-03-22T12:32:35;98412.00;;;22.12;29.97
10700;BME280;5401;41.986;21.452;2024-03-22T12:35:03;98370.03;;;21.70;30.27
10700;BME280;5401;41.986;21.452;2024-03-22T12:37:32;98374.22;;;21.58;30.55
10700;BME280;5401;41.986;21.452;2024-03-22T12:40:02;98363.09;;;21.49;30.63
10700;BME280;5401;41.986;21.452;2024-03-22T12:42:30;98374.31;;;21.43;30.59
10700;BME280;5401;41.986;21.452;2024-03-22T12:44:59;98347.44;;;21.12;30.23
10700;BME280;5401;41.986;21.452;2024-03-22T12:47:28;98393.97;;;21.20;30.47
10700;BME280;5401;41.986;21.452;2024-03-22T12:50:18;98392.84;;;21.41;29.99
10700;BME280;5401;41.986;21.452;2024-03-22T12:52:47;98404.28;;;21.43;30.62
10700;BME280;5401;41.986;21.452;2024-03-22T12:55:15;98335.44;;;21.18;30.41
10700;BME280;5401;41.986;21.452;2024-03-22T12:57:45;98358.75;;;21.44;30.28
10700;BME280;5401;41.986;21.452;2024-03-22T13:00:13;98384.56;;;21.56;30.44
10700;BME280;5401;41.986;21.452;2024-03-22T13:02:44;98375.09;;;21.44;29.91
10700;BME280;5401;41.986;21.452;2024-03-22T13:05:11;98348.84;;;21.00;30.30
10700;BME280;5401;41.986;21.452;2024-03-22T13:07:39;98373.38;;;20.90;30.44